sensor_id;sensor_type;location;lat;lon;timestamp;P1;durP1;ratioP1;P2;durP2;ratioP2
60318;SDS011;46163;52.306;5.634;2023-01-23T00:01:48;1.00;;;1.00;;
60318;SDS011;46163;52.306;5.634;2023-01-23T00:04:14;1.20;;;1.20;;
60318;SDS011;46163;52.306;5.634;2023-01-23T00:06:40;1.10;;;1.10;;
60318;SDS011;46163;52.306;5.634;2023-01-23T00:09:06;1.40;;;1.30;;
60318;SDS011;46163;52.306;5.634;2023-01-23T00:11:32;1.30;;;1.20;;
60318;SDS011;46163;52.306;5.634;2023-01-23T00:13:58;1.20;;;1.10;;
60318;SDS011;46163;52.306;5.634;2023-01-23T00:16:26;1.10;;;1.10;;
60318;SDS011;46163;52.306;5.634;2023-01-23T00:18:54;1.05;;;1.05;;
60318;SDS011;46163;52.306;5.634;2023-01-23T00:21:21;1.25;;;1.20;;
60318;SDS011;46163;52.306;5.634;2023-01-23T00:23:50;1.00;;;1.00;;
60318;SDS011;46163;52.306;5.634;2023-01-23T00:28:45;1.20;;;1.15;;
60318;SDS011;46163;52.306;5.634;2023-01-23T00:31:16;0.95;;;0.95;;
60318;SDS011;46163;52.306;5.634;2023-01-23T00:33:44;1.00;;;1.00;;
60318;SDS011;46163;52.306;5.634;2023-01-23T00:36:11;1.10;;;1.10;;
60318;SDS011;46163;52.306;5.634;2023-01-23T00:38:38;1.27;;;1.27;;
60318;SDS011;46163;52.306;5.634;2023-01-23T00:41:04;1.10;;;1.10;;
60318;SDS011;46163;52.306;5.634;2023-01-23T00:43:29;1.00;;;1.00;;
60318;SDS011;46163;52.306;5.634;2023-01-23T00:45:55;1.33;;;1.10;;
60318;SDS011;46163;52.306;5.634;2023-01-23T00:48:21;1.23;;;1.13;;
60318;SDS011;46163;52.306;5.634;2023-01-23T00:50:47;1.33;;;1.23;;
60318;SDS011;46163;52.306;5.634;2023-01-23T00:53:15;1.10;;;1.10;;
60318;SDS011;46163;52.306;5.634;2023-01-23T00:55:42;0.95;;;0.95;;
60318;SDS011;46163;52.306;5.634;2023-01-23T00:58:08;1.10;;;1.10;;
60318;SDS011;46163;52.306;5.634;2023-01-23T01:00:34;1.15;;;1.13;;
60318;SDS011;46163;52.306;5.634;2023-01-23T01:03:00;1.17;;;1.17;;
60318;SDS011;46163;52.306;5.634;2023-01-23T01:05:27;1.17;;;1.17;;
60318;SDS011;46163;52.306;5.634;2023-01-23T01:07:52;1.50;;;1.40;;
60318;SDS011;46163;52.306;5.634;2023-01-23T01:10:18;1.00;;;1.00;;
60318;SDS011;46163;52.306;5.634;2023-01-23T01:12:43;1.27;;;1.20;;
60318;SDS011;46163;52.306;5.634;2023-01-23T01:15:09;1.00;;;1.00;;
60318;SDS011;46163;52.306;5.634;2023-01-23T01:17:35;1.20;;;1.10;;
60318;SDS011;46163;52.306;5.634;2023-01-23T01:20:02;1.83;;;1.20;;
60318;SDS011;46163;52.306;5.634;2023-01-23T01:24:55;1.85;;;1.70;;
60318;SDS011;46163;52.306;5.634;2023-01-23T01:27:21;1.20;;;1.10;;
60318;SDS011;46163;52.306;5.634;2023-01-23T01:29:47;1.00;;;1.00;;
60318;SDS011;46163;52.306;5.634;2023-01-23T01:32:12;1.00;;;1.00;;
60318;SDS011;46163;52.306;5.634;2023-01-23T01:34:38;1.27;;;1.17;;
60318;SDS011;46163;52.306;5.634;2023-01-23T01:37:03;1.05;;;1.00;;
60318;SDS011;46163;52.306;5.634;2023-01-23T01:39:29;1.05;;;1.02;;
60318;SDS011;46163;52.306;5.634;2023-01-23T01:41:54;0.90;;;0.90;;
60318;SDS011;46163;52.306;5.634;2023-01-23T01:44:21;1.30;;;1.20;;
60318;SDS011;46163;52.306;5.634;2023-01-23T01:46:48;0.82;;;0.82;;
60318;SDS011;46163;52.306;5.634;2023-01-23T01:49:19;1.00;;;1.00;;
60318;SDS011;46163;52.306;5.634;2023-01-23T01:51:58;1.20;;;1.20;;
60318;SDS011;46163;52.306;5.634;2023-01-23T01:57:03;1.20;;;1.10;;
60318;SDS011;46163;52.306;5.634;2023-01-23T01:59:37;1.10;;;1.10;;
60318;SDS011;46163;52.306;5.634;2023-01-23T02:02:11;1.10;;;1.10;;
60318;SDS011;46163;52.306;5.634;2023-01-23T02:04:43;1.10;;;1.10;;
60318;SDS011;46163;52.306;5.634;2023-01-23T02:07:23;1.30;;;1.30;;
60318;SDS011;46163;52.306;5.634;2023-01-23T02:09:53;1.00;;;1.00;;
60318;SDS011;46163;52.306;5.634;2023-01-23T02:12:20;1.00;;;1.00;;
60318;SDS011;46163;52.306;5.634;2023-01-23T02:14:52;1.20;;;1.10;;
60318;SDS011;46163;52.306;5.634;2023-01-23T02:17:18;0.98;;;0.98;;
60318;SDS011;46163;52.306;5.634;2023-01-23T02:20:04;1.00;;;1.00;;
60318;SDS011;46163;52.306;5.634;2023-01-23T02:25:19;1.10;;;1.10;;
60318;SDS011;46163;52.306;5.634;2023-01-23T02:27:52;0.90;;;0.90;;
60318;SDS011;46163;52.306;5.634;2023-01-23T02:30:18;1.10;;;1.10;;
60318;SDS011;46163;52.306;5.634;2023-01-23T02:32:45;1.85;;;1.17;;
60318;SDS011;46163;52.306;5.634;2023-01-23T02:35:12;1.00;;;1.00;;
60318;SDS011;46163;52.306;5.634;2023-01-23T02:37:44;1.33;;;1.20;;
60318;SDS011;46163;52.306;5.634;2023-01-23T02:42:38;1.27;;;1.17;;
60318;SDS011;46163;52.306;5.634;2023-01-23T02:45:08;1.05;;;1.05;;
60318;SDS011;46163;52.306;5.634;2023-01-23T02:47:33;1.15;;;1.15;;
60318;SDS011;46163;52.306;5.634;2023-01-23T02:49:59;1.10;;;1.10;;
60318;SDS011;46163;52.306;5.634;2023-01-23T02:52:24;0.90;;;0.90;;
60318;SDS011;46163;52.306;5.634;2023-01-23T02:54:51;1.10;;;1.10;;
60318;SDS011;46163;52.306;5.634;2023-01-23T02:57:17;1.20;;;1.20;;
60318;SDS011;46163;52.306;5.634;2023-01-23T02:59:42;1.00;;;1.00;;
60318;SDS011;46163;52.306;5.634;2023-01-23T03:02:26;1.10;;;1.10;;
60318;SDS011;46163;52.306;5.634;2023-01-23T03:04:52;0.93;;;0.93;;
60318;SDS011;46163;52.306;5.634;2023-01-23T03:07:18;0.90;;;0.90;;
60318;SDS011;46163;52.306;5.634;2023-01-23T03:09:43;1.08;;;1.08;;
60318;SDS011;46163;52.306;5.634;2023-01-23T03:12:12;1.00;;;1.00;;
60318;SDS011;46163;52.306;5.634;2023-01-23T03:14:40;1.08;;;1.08;;
60318;SDS011;46163;52.306;5.634;2023-01-23T03:17:06;0.90;;;0.90;;
60318;SDS011;46163;52.306;5.634;2023-01-23T03:19:32;1.00;;;1.00;;
60318;SDS011;46163;52.306;5.634;2023-01-23T03:21:57;0.98;;;0.98;;
60318;SDS011;46163;52.306;5.634;2023-01-23T03:24:23;1.08;;;1.08;;
60318;SDS011;46163;52.306;5.634;2023-01-23T03:26:49;0.90;;;0.90;;
60318;SDS011;46163;52.306;5.634;2023-01-23T03:29:16;0.90;;;0.90;;
60318;SDS011;46163;52.306;5.634;2023-01-23T03:32:02;1.10;;;1.10;;
60318;SDS011;46163;52.306;5.634;2023-01-23T03:34:31;1.00;;;1.00;;
60318;SDS011;46163;52.306;5.634;2023-01-23T03:36:57;1.20;;;1.10;;
60318;SDS011;46163;52.306;5.634;2023-01-23T03:39:23;0.90;;;0.90;;
60318;SDS011;46163;52.306;5.634;2023-01-23T03:42:07;0.95;;;0.95;;
60318;SDS011;46163;52.306;5.634;2023-01-23T03:44:33;0.90;;;0.90;;
60318;SDS011;46163;52.306;5.634;2023-01-23T03:46:58;0.88;;;0.88;;
60318;SDS011;46163;52.306;5.634;2023-01-23T03:49:24;1.20;;;1.10;;
60318;SDS011;46163;52.306;5.634;2023-01-23T03:51:50;1.00;;;1.00;;
60318;SDS011;46163;52.306;5.634;2023-01-23T03:54:20;1.00;;;1.00;;
60318;SDS011;46163;52.306;5.634;2023-01-23T03:56:45;1.00;;;1.00;;
60318;SDS011;46163;52.306;5.634;2023-01-23T03:59:11;0.90;;;0.90;;
60318;SDS011;46163;52.306;5.634;2023-01-23T04:01:37;1.35;;;1.08;;
60318;SDS011;46163;52.306;5.634;2023-01-23T04:04:02;1.00;;;1.00;;
60318;SDS011;46163;52.306;5.634;2023-01-23T04:06:28;0.98;;;0.98;;
60318;SDS011;46163;52.306;5.634;2023-01-23T04:08:54;0.90;;;0.90;;
60318;SDS011;46163;52.306;5.634;2023-01-23T04:11:22;0.80;;;0.80;;
60318;SDS011;46163;52.306;5.634;2023-01-23T04:13:49;0.80;;;0.80;;
60318;SDS011;46163;52.306;5.634;2023-01-23T04:16:17;0.90;;;0.90;;
60318;SDS011;46163;52.306;5.634;2023-01-23T04:18:43;0.73;;;0.73;;
60318;SDS011;46163;52.306;5.634;2023-01-23T04:21:09;0.85;;;0.85;;
60318;SDS011;46163;52.306;5.634;2023-01-23T04:23:35;0.75;;;0.75;;
60318;SDS011;46163;52.306;5.634;2023-01-23T04:26:01;0.88;;;0.88;;
60318;SDS011;46163;52.306;5.634;2023-01-23T04:28:26;0.80;;;0.80;;
60318;SDS011;46163;52.306;5.634;2023-01-23T04:30:54;0.70;;;0.70;;
60318;SDS011;46163;52.306;5.634;2023-01-23T04:33:19;0.80;;;0.80;;
60318;SDS011;46163;52.306;5.634;2023-01-23T04:35:53;0.80;;;0.80;;
60318;SDS011;46163;52.306;5.634;2023-01-23T04:38:24;1.10;;;1.10;;
60318;SDS011;46163;52.306;5.634;2023-01-23T04:40:51;0.80;;;0.80;;
60318;SDS011;46163;52.306;5.634;2023-01-23T04:43:18;0.57;;;0.57;;
60318;SDS011;46163;52.306;5.634;2023-01-23T04:45:44;0.52;;;0.52;;
60318;SDS011;46163;52.306;5.634;2023-01-23T04:48:11;0.90;;;0.90;;
60318;SDS011;46163;52.306;5.634;2023-01-23T04:50:37;0.80;;;0.80;;
60318;SDS011;46163;52.306;5.634;2023-01-23T04:53:03;0.80;;;0.80;;
60318;SDS011;46163;52.306;5.634;2023-01-23T04:55:30;0.60;;;0.60;;
60318;SDS011;46163;52.306;5.634;2023-01-23T04:57:56;0.50;;;0.50;;
60318;SDS011;46163;52.306;5.634;2023-01-23T05:00:21;0.90;;;0.90;;
60318;SDS011;46163;52.306;5.634;2023-01-23T05:02:48;0.90;;;0.90;;
60318;SDS011;46163;52.306;5.634;2023-01-23T05:05:14;0.60;;;0.60;;
60318;SDS011;46163;52.306;5.634;2023-01-23T05:07:45;0.80;;;0.80;;
60318;SDS011;46163;52.306;5.634;2023-01-23T05:10:11;0.73;;;0.73;;
60318;SDS011;46163;52.306;5.634;2023-01-23T05:12:38;0.80;;;0.80;;
60318;SDS011;46163;52.306;5.634;2023-01-23T05:15:03;0.80;;;0.80;;
60318;SDS011;46163;52.306;5.634;2023-01-23T05:17:29;0.65;;;0.65;;
60318;SDS011;46163;52.306;5.634;2023-01-23T05:19:56;0.73;;;0.65;;
60318;SDS011;46163;52.306;5.634;2023-01-23T05:22:21;0.73;;;0.73;;
60318;SDS011;46163;52.306;5.634;2023-01-23T05:24:47;0.85;;;0.85;;
60318;SDS011;46163;52.306;5.634;2023-01-23T05:27:13;0.60;;;0.60;;
60318;SDS011;46163;52.306;5.634;2023-01-23T05:29:40;0.73;;;0.73;;
60318;SDS011;46163;52.306;5.634;2023-01-23T05:32:05;0.73;;;0.73;;
60318;SDS011;46163;52.306;5.634;2023-01-23T05:34:31;0.80;;;0.80;;
60318;SDS011;46163;52.306;5.634;2023-01-23T05:36:56;0.80;;;0.80;;
60318;SDS011;46163;52.306;5.634;2023-01-23T05:39:22;0.80;;;0.80;;
60318;SDS011;46163;52.306;5.634;2023-01-23T05:41:48;0.80;;;0.80;;
60318;SDS011;46163;52.306;5.634;2023-01-23T05:44:13;0.65;;;0.65;;
60318;SDS011;46163;52.306;5.634;2023-01-23T05:46:39;0.57;;;0.57;;
60318;SDS011;46163;52.306;5.634;2023-01-23T05:49:04;0.70;;;0.70;;
60318;SDS011;46163;52.306;5.634;2023-01-23T05:51:30;1.85;;;0.90;;
60318;SDS011;46163;52.306;5.634;2023-01-23T05:53:58;0.73;;;0.73;;
60318;SDS011;46163;52.306;5.634;2023-01-23T05:56:25;0.65;;;0.65;;
60318;SDS011;46163;52.306;5.634;2023-01-23T05:58:51;0.80;;;0.80;;
60318;SDS011;46163;52.306;5.634;2023-01-23T06:01:17;0.85;;;0.85;;
60318;SDS011;46163;52.306;5.634;2023-01-23T06:03:43;0.75;;;0.75;;
60318;SDS011;46163;52.306;5.634;2023-01-23T06:06:09;0.70;;;0.70;;
60318;SDS011;46163;52.306;5.634;2023-01-23T06:08:35;0.88;;;0.80;;
60318;SDS011;46163;52.306;5.634;2023-01-23T06:11:00;0.70;;;0.70;;
60318;SDS011;46163;52.306;5.634;2023-01-23T06:13:27;0.65;;;0.65;;
60318;SDS011;46163;52.306;5.634;2023-01-23T06:15:53;0.52;;;0.52;;
60318;SDS011;46163;52.306;5.634;2023-01-23T06:18:21;0.77;;;0.77;;
60318;SDS011;46163;52.306;5.634;2023-01-23T06:20:56;0.80;;;0.80;;
60318;SDS011;46163;52.306;5.634;2023-01-23T06:23:22;0.80;;;0.80;;
60318;SDS011;46163;52.306;5.634;2023-01-23T06:25:48;2.15;;;1.00;;
60318;SDS011;46163;52.306;5.634;2023-01-23T06:28:13;1.65;;;0.98;;
60318;SDS011;46163;52.306;5.634;2023-01-23T06:30:39;1.55;;;1.17;;
60318;SDS011;46163;52.306;5.634;2023-01-23T06:33:05;0.88;;;0.88;;
60318;SDS011;46163;52.306;5.634;2023-01-23T06:35:31;2.30;;;0.95;;
60318;SDS011;46163;52.306;5.634;2023-01-23T06:37:56;0.70;;;0.70;;
60318;SDS011;46163;52.306;5.634;2023-01-23T06:40:21;0.70;;;0.70;;
60318;SDS011;46163;52.306;5.634;2023-01-23T06:42:48;1.48;;;0.80;;
60318;SDS011;46163;52.306;5.634;2023-01-23T06:45:15;0.90;;;0.90;;
60318;SDS011;46163;52.306;5.634;2023-01-23T06:47:40;0.75;;;0.75;;
60318;SDS011;46163;52.306;5.634;2023-01-23T06:50:06;1.00;;;1.00;;
60318;SDS011;46163;52.306;5.634;2023-01-23T06:52:32;1.08;;;0.98;;
60318;SDS011;46163;52.306;5.634;2023-01-23T06:54:58;0.98;;;0.98;;
60318;SDS011;46163;52.306;5.634;2023-01-23T06:57:23;0.82;;;0.82;;
60318;SDS011;46163;52.306;5.634;2023-01-23T06:59:48;1.00;;;1.00;;
60318;SDS011;46163;52.306;5.634;2023-01-23T07:02:14;0.82;;;0.80;;
60318;SDS011;46163;52.306;5.634;2023-01-23T07:04:40;0.98;;;0.93;;
60318;SDS011;46163;52.306;5.634;2023-01-23T07:07:05;0.90;;;0.90;;
60318;SDS011;46163;52.306;5.634;2023-01-23T07:09:31;0.80;;;0.80;;
60318;SDS011;46163;52.306;5.634;2023-01-23T07:11:57;0.80;;;0.80;;
60318;SDS011;46163;52.306;5.634;2023-01-23T07:14:25;0.80;;;0.80;;
60318;SDS011;46163;52.306;5.634;2023-01-23T07:16:52;1.17;;;0.90;;
60318;SDS011;46163;52.306;5.634;2023-01-23T07:19:18;0.82;;;0.80;;
60318;SDS011;46163;52.306;5.634;2023-01-23T07:21:44;1.13;;;0.80;;
60318;SDS011;46163;52.306;5.634;2023-01-23T07:24:11;0.70;;;0.70;;
60318;SDS011;46163;52.306;5.634;2023-01-23T07:26:37;1.13;;;1.05;;
60318;SDS011;46163;52.306;5.634;2023-01-23T07:29:02;1.08;;;0.80;;
60318;SDS011;46163;52.306;5.634;2023-01-23T07:31:28;0.80;;;0.80;;
60318;SDS011;46163;52.306;5.634;2023-01-23T07:33:53;0.90;;;0.90;;
60318;SDS011;46163;52.306;5.634;2023-01-23T07:36:19;0.73;;;0.73;;
60318;SDS011;46163;52.306;5.634;2023-01-23T07:38:45;0.80;;;0.80;;
60318;SDS011;46163;52.306;5.634;2023-01-23T07:41:10;0.70;;;0.70;;
60318;SDS011;46163;52.306;5.634;2023-01-23T07:43:36;0.82;;;0.82;;
60318;SDS011;46163;52.306;5.634;2023-01-23T07:46:01;0.75;;;0.75;;
60318;SDS011;46163;52.306;5.634;2023-01-23T07:48:27;1.85;;;0.70;;
60318;SDS011;46163;52.306;5.634;2023-01-23T07:50:53;0.98;;;0.98;;
60318;SDS011;46163;52.306;5.634;2023-01-23T07:53:19;0.85;;;0.85;;
60318;SDS011;46163;52.306;5.634;2023-01-23T07:55:44;1.27;;;0.80;;
60318;SDS011;46163;52.306;5.634;2023-01-23T07:58:11;0.95;;;0.95;;
60318;SDS011;46163;52.306;5.634;2023-01-23T08:00:37;0.75;;;0.75;;
60318;SDS011;46163;52.306;5.634;2023-01-23T08:03:03;0.73;;;0.73;;
60318;SDS011;46163;52.306;5.634;2023-01-23T08:05:28;0.70;;;0.70;;
60318;SDS011;46163;52.306;5.634;2023-01-23T08:07:54;0.68;;;0.68;;
60318;SDS011;46163;52.306;5.634;2023-01-23T08:10:19;0.70;;;0.70;;
60318;SDS011;46163;52.306;5.634;2023-01-23T08:12:45;0.70;;;0.70;;
60318;SDS011;46163;52.306;5.634;2023-01-23T08:15:11;0.70;;;0.70;;
60318;SDS011;46163;52.306;5.634;2023-01-23T08:17:36;1.33;;;0.88;;
60318;SDS011;46163;52.306;5.634;2023-01-23T08:20:02;1.85;;;0.80;;
60318;SDS011;46163;52.306;5.634;2023-01-23T08:22:28;0.70;;;0.70;;
60318;SDS011;46163;52.306;5.634;2023-01-23T08:24:53;0.57;;;0.57;;
60318;SDS011;46163;52.306;5.634;2023-01-23T08:27:19;0.90;;;0.85;;
60318;SDS011;46163;52.306;5.634;2023-01-23T08:29:47;1.00;;;1.00;;
60318;SDS011;46163;52.306;5.634;2023-01-23T08:32:12;0.70;;;0.70;;
60318;SDS011;46163;52.306;5.634;2023-01-23T08:34:38;0.90;;;0.90;;
60318;SDS011;46163;52.306;5.634;2023-01-23T08:37:03;0.70;;;0.70;;
60318;SDS011;46163;52.306;5.634;2023-01-23T08:39:29;0.57;;;0.57;;
60318;SDS011;46163;52.306;5.634;2023-01-23T08:41:54;0.80;;;0.80;;
60318;SDS011;46163;52.306;5.634;2023-01-23T08:44:19;0.70;;;0.70;;
60318;SDS011;46163;52.306;5.634;2023-01-23T08:46:45;0.80;;;0.80;;
60318;SDS011;46163;52.306;5.634;2023-01-23T08:49:11;0.88;;;0.88;;
60318;SDS011;46163;52.306;5.634;2023-01-23T08:51:37;0.80;;;0.80;;
60318;SDS011;46163;52.306;5.634;2023-01-23T08:54:02;0.70;;;0.70;;
60318;SDS011;46163;52.306;5.634;2023-01-23T08:56:28;0.60;;;0.60;;
60318;SDS011;46163;52.306;5.634;2023-01-23T08:58:54;0.70;;;0.70;;
60318;SDS011;46163;52.306;5.634;2023-01-23T09:01:21;0.98;;;0.73;;
60318;SDS011;46163;52.306;5.634;2023-01-23T09:03:48;0.80;;;0.80;;
60318;SDS011;46163;52.306;5.634;2023-01-23T09:06:16;0.90;;;0.90;;
60318;SDS011;46163;52.306;5.634;2023-01-23T09:08:42;0.70;;;0.70;;
60318;SDS011;46163;52.306;5.634;2023-01-23T09:11:09;0.52;;;0.52;;
60318;SDS011;46163;52.306;5.634;2023-01-23T09:13:36;1.05;;;1.05;;
60318;SDS011;46163;52.306;5.634;2023-01-23T09:16:03;0.70;;;0.70;;
60318;SDS011;46163;52.306;5.634;2023-01-23T09:18:29;1.10;;;1.00;;
60318;SDS011;46163;52.306;5.634;2023-01-23T09:20:56;0.80;;;0.80;;
60318;SDS011;46163;52.306;5.634;2023-01-23T09:23:22;0.70;;;0.70;;
60318;SDS011;46163;52.306;5.634;2023-01-23T09:25:48;0.70;;;0.70;;
60318;SDS011;46163;52.306;5.634;2023-01-23T09:28:14;0.95;;;0.95;;
60318;SDS011;46163;52.306;5.634;2023-01-23T09:30:40;0.77;;;0.70;;
60318;SDS011;46163;52.306;5.634;2023-01-23T09:33:05;0.90;;;0.90;;
60318;SDS011;46163;52.306;5.634;2023-01-23T09:35:31;0.70;;;0.70;;
60318;SDS011;46163;52.306;5.634;2023-01-23T09:37:57;0.80;;;0.80;;
60318;SDS011;46163;52.306;5.634;2023-01-23T09:40:30;0.73;;;0.73;;
60318;SDS011;46163;52.306;5.634;2023-01-23T09:43:21;0.90;;;0.90;;
60318;SDS011;46163;52.306;5.634;2023-01-23T09:45:49;0.90;;;0.90;;
60318;SDS011;46163;52.306;5.634;2023-01-23T09:51:46;0.70;;;0.70;;
60318;SDS011;46163;52.306;5.634;2023-01-23T09:56:49;0.57;;;0.57;;
60318;SDS011;46163;52.306;5.634;2023-01-23T09:59:21;0.82;;;0.82;;
60318;SDS011;46163;52.306;5.634;2023-01-23T10:01:53;1.58;;;0.90;;
60318;SDS011;46163;52.306;5.634;2023-01-23T10:04:19;0.57;;;0.57;;
60318;SDS011;46163;52.306;5.634;2023-01-23T10:13:12;0.70;;;0.70;;
60318;SDS011;46163;52.306;5.634;2023-01-23T10:24:15;0.88;;;0.88;;
60318;SDS011;46163;52.306;5.634;2023-01-23T10:26:45;0.77;;;0.60;;
60318;SDS011;46163;52.306;5.634;2023-01-23T10:29:27;0.90;;;0.90;;
60318;SDS011;46163;52.306;5.634;2023-01-23T10:31:58;0.90;;;0.90;;
60318;SDS011;46163;52.306;5.634;2023-01-23T10:34:31;0.80;;;0.80;;
60318;SDS011;46163;52.306;5.634;2023-01-23T10:40:01;0.60;;;0.60;;
60318;SDS011;46163;52.306;5.634;2023-01-23T10:42:32;0.90;;;0.90;;
60318;SDS011;46163;52.306;5.634;2023-01-23T10:44:57;0.77;;;0.77;;
60318;SDS011;46163;52.306;5.634;2023-01-23T10:47:43;0.63;;;0.63;;
60318;SDS011;46163;52.306;5.634;2023-01-23T10:50:11;0.85;;;0.85;;
60318;SDS011;46163;52.306;5.634;2023-01-23T10:52:38;0.68;;;0.68;;
60318;SDS011;46163;52.306;5.634;2023-01-23T10:55:05;0.73;;;0.73;;
60318;SDS011;46163;52.306;5.634;2023-01-23T10:57:58;1.15;;;0.70;;
60318;SDS011;46163;52.306;5.634;2023-01-23T11:00:37;0.82;;;0.70;;
60318;SDS011;46163;52.306;5.634;2023-01-23T11:05:50;0.80;;;0.80;;
60318;SDS011;46163;52.306;5.634;2023-01-23T11:08:24;0.70;;;0.70;;
60318;SDS011;46163;52.306;5.634;2023-01-23T11:11:31;0.93;;;0.70;;
60318;SDS011;46163;52.306;5.634;2023-01-23T11:14:06;0.70;;;0.70;;
60318;SDS011;46163;52.306;5.634;2023-01-23T11:16:34;1.05;;;0.82;;
60318;SDS011;46163;52.306;5.634;2023-01-23T11:21:32;0.82;;;0.82;;
60318;SDS011;46163;52.306;5.634;2023-01-23T11:24:17;1.55;;;1.08;;
60318;SDS011;46163;52.306;5.634;2023-01-23T11:26:46;1.45;;;0.90;;
60318;SDS011;46163;52.306;5.634;2023-01-23T11:29:22;0.60;;;0.60;;
60318;SDS011;46163;52.306;5.634;2023-01-23T11:31:51;0.93;;;0.80;;
60318;SDS011;46163;52.306;5.634;2023-01-23T11:34:23;2.45;;;1.10;;
60318;SDS011;46163;52.306;5.634;2023-01-23T11:36:54;1.00;;;1.00;;
60318;SDS011;46163;52.306;5.634;2023-01-23T11:39:33;2.90;;;1.02;;
60318;SDS011;46163;52.306;5.634;2023-01-23T11:42:11;0.80;;;0.80;;
60318;SDS011;46163;52.306;5.634;2023-01-23T11:44:38;1.00;;;1.00;;
60318;SDS011;46163;52.306;5.634;2023-01-23T12:06:28;4.72;;;1.00;;
60318;SDS011;46163;52.306;5.634;2023-01-23T12:09:13;1.20;;;1.20;;
60318;SDS011;46163;52.306;5.634;2023-01-23T12:40:36;0.90;;;0.90;;
60318;SDS011;46163;52.306;5.634;2023-01-23T12:45:41;1.05;;;0.95;;
60318;SDS011;46163;52.306;5.634;2023-01-23T12:48:15;1.85;;;0.90;;
60318;SDS011;46163;52.306;5.634;2023-01-23T12:50:49;1.00;;;1.00;;
60318;SDS011;46163;52.306;5.634;2023-01-23T12:53:20;2.85;;;0.90;;
60318;SDS011;46163;52.306;5.634;2023-01-23T12:56:09;0.90;;;0.90;;
60318;SDS011;46163;52.306;5.634;2023-01-23T12:58:40;0.95;;;0.95;;
60318;SDS011;46163;52.306;5.634;2023-01-23T13:01:25;0.80;;;0.80;;
60318;SDS011;46163;52.306;5.634;2023-01-23T13:07:11;2.10;;;0.80;;
60318;SDS011;46163;52.306;5.634;2023-01-23T13:12:43;1.08;;;0.90;;
60318;SDS011;46163;52.306;5.634;2023-01-23T13:17:46;1.00;;;1.00;;
60318;SDS011;46163;52.306;5.634;2023-01-23T13:20:21;0.90;;;0.90;;
60318;SDS011;46163;52.306;5.634;2023-01-23T13:26:10;0.80;;;0.80;;
60318;SDS011;46163;52.306;5.634;2023-01-23T13:28:39;0.85;;;0.85;;
60318;SDS011;46163;52.306;5.634;2023-01-23T13:33:57;1.52;;;1.00;;
60318;SDS011;46163;52.306;5.634;2023-01-23T13:36:44;0.85;;;0.85;;
60318;SDS011;46163;52.306;5.634;2023-01-23T13:41:44;1.10;;;0.95;;
60318;SDS011;46163;52.306;5.634;2023-01-23T13:44:33;1.02;;;0.90;;
60318;SDS011;46163;52.306;5.634;2023-01-23T13:47:08;1.50;;;1.25;;
60318;SDS011;46163;52.306;5.634;2023-01-23T13:52:40;2.90;;;0.85;;
60318;SDS011;46163;52.306;5.634;2023-01-23T13:55:32;2.42;;;0.95;;
60318;SDS011;46163;52.306;5.634;2023-01-23T13:58:23;0.90;;;0.90;;
60318;SDS011;46163;52.306;5.634;2023-01-23T14:01:00;1.08;;;1.05;;
60318;SDS011;46163;52.306;5.634;2023-01-23T14:04:04;0.80;;;0.80;;
60318;SDS011;46163;52.306;5.634;2023-01-23T14:06:50;1.33;;;0.98;;
60318;SDS011;46163;52.306;5.634;2023-01-23T14:09:26;2.15;;;1.00;;
60318;SDS011;46163;52.306;5.634;2023-01-23T14:11:59;1.75;;;1.13;;
60318;SDS011;46163;52.306;5.634;2023-01-23T14:14:31;0.90;;;0.90;;
60318;SDS011;46163;52.306;5.634;2023-01-23T14:17:16;1.73;;;1.15;;
60318;SDS011;46163;52.306;5.634;2023-01-23T14:19:54;1.88;;;1.00;;
60318;SDS011;46163;52.306;5.634;2023-01-23T14:22:26;1.30;;;1.20;;
60318;SDS011;46163;52.306;5.634;2023-01-23T14:24:53;1.27;;;1.17;;
60318;SDS011;46163;52.306;5.634;2023-01-23T14:27:33;1.25;;;1.15;;
60318;SDS011;46163;52.306;5.634;2023-01-23T14:32:34;2.42;;;1.27;;
60318;SDS011;46163;52.306;5.634;2023-01-23T14:34:59;1.42;;;1.00;;
60318;SDS011;46163;52.306;5.634;2023-01-23T14:37:25;1.00;;;1.00;;
60318;SDS011;46163;52.306;5.634;2023-01-23T14:40:00;1.17;;;1.02;;
60318;SDS011;46163;52.306;5.634;2023-01-23T14:42:27;1.20;;;1.02;;
60318;SDS011;46163;52.306;5.634;2023-01-23T14:49:53;2.17;;;0.93;;
60318;SDS011;46163;52.306;5.634;2023-01-23T14:52:23;2.60;;;0.90;;
60318;SDS011;46163;52.306;5.634;2023-01-23T14:54:51;1.95;;;1.02;;
60318;SDS011;46163;52.306;5.634;2023-01-23T14:57:17;1.95;;;0.90;;
60318;SDS011;46163;52.306;5.634;2023-01-23T14:59:46;0.70;;;0.70;;
60318;SDS011;46163;52.306;5.634;2023-01-23T15:07:33;0.80;;;0.80;;
60318;SDS011;46163;52.306;5.634;2023-01-23T15:10:12;1.13;;;1.02;;
60318;SDS011;46163;52.306;5.634;2023-01-23T15:12:46;0.85;;;0.85;;
60318;SDS011;46163;52.306;5.634;2023-01-23T15:15:17;0.80;;;0.80;;
60318;SDS011;46163;52.306;5.634;2023-01-23T15:17:44;0.90;;;0.85;;
60318;SDS011;46163;52.306;5.634;2023-01-23T15:20:31;0.70;;;0.70;;
60318;SDS011;46163;52.306;5.634;2023-01-23T15:25:42;0.82;;;0.82;;
60318;SDS011;46163;52.306;5.634;2023-01-23T15:33:48;0.80;;;0.80;;
60318;SDS011;46163;52.306;5.634;2023-01-23T15:36:27;0.55;;;0.55;;
60318;SDS011;46163;52.306;5.634;2023-01-23T15:38:55;1.00;;;1.00;;
60318;SDS011;46163;52.306;5.634;2023-01-23T15:41:43;0.95;;;0.95;;
60318;SDS011;46163;52.306;5.634;2023-01-23T15:44:13;1.13;;;1.10;;
60318;SDS011;46163;52.306;5.634;2023-01-23T15:49:06;1.40;;;1.30;;
60318;SDS011;46163;52.306;5.634;2023-01-23T15:51:32;0.90;;;0.90;;
60318;SDS011;46163;52.306;5.634;2023-01-23T15:53:58;1.15;;;1.10;;
60318;SDS011;46163;52.306;5.634;2023-01-23T15:56:27;1.35;;;1.25;;
60318;SDS011;46163;52.306;5.634;2023-01-23T15:58:55;1.30;;;1.20;;
60318;SDS011;46163;52.306;5.634;2023-01-23T16:01:23;1.00;;;1.00;;
60318;SDS011;46163;52.306;5.634;2023-01-23T16:03:48;1.05;;;1.05;;
60318;SDS011;46163;52.306;5.634;2023-01-23T16:06:14;1.33;;;1.23;;
60318;SDS011;46163;52.306;5.634;2023-01-23T16:08:45;2.00;;;1.30;;
60318;SDS011;46163;52.306;5.634;2023-01-23T16:11:17;1.35;;;1.30;;
60318;SDS011;46163;52.306;5.634;2023-01-23T16:13:44;1.13;;;1.13;;
60318;SDS011;46163;52.306;5.634;2023-01-23T16:16:11;1.38;;;1.30;;
60318;SDS011;46163;52.306;5.634;2023-01-23T16:18:38;2.50;;;1.67;;
60318;SDS011;46163;52.306;5.634;2023-01-23T16:21:04;3.65;;;1.85;;
60318;SDS011;46163;52.306;5.634;2023-01-23T16:23:30;4.38;;;2.22;;
60318;SDS011;46163;52.306;5.634;2023-01-23T16:25:56;8.15;;;3.25;;
60318;SDS011;46163;52.306;5.634;2023-01-23T16:28:23;7.53;;;3.65;;
60318;SDS011;46163;52.306;5.634;2023-01-23T16:30:50;8.88;;;3.70;;
60318;SDS011;46163;52.306;5.634;2023-01-23T16:33:17;9.55;;;4.40;;
60318;SDS011;46163;52.306;5.634;2023-01-23T16:35:43;9.25;;;4.13;;
60318;SDS011;46163;52.306;5.634;2023-01-23T16:38:23;12.18;;;4.88;;
60318;SDS011;46163;52.306;5.634;2023-01-23T16:40:51;13.80;;;5.97;;
60318;SDS011;46163;52.306;5.634;2023-01-23T16:43:21;12.88;;;5.40;;
60318;SDS011;46163;52.306;5.634;2023-01-23T16:45:47;11.45;;;4.72;;
60318;SDS011;46163;52.306;5.634;2023-01-23T16:48:13;10.30;;;4.38;;
60318;SDS011;46163;52.306;5.634;2023-01-23T16:50:40;11.52;;;4.07;;
60318;SDS011;46163;52.306;5.634;2023-01-23T16:53:27;7.53;;;3.70;;
60318;SDS011;46163;52.306;5.634;2023-01-23T16:55:55;7.40;;;3.33;;
60318;SDS011;46163;52.306;5.634;2023-01-23T16:58:24;5.55;;;3.17;;
60318;SDS011;46163;52.306;5.634;2023-01-23T17:01:02;4.30;;;3.00;;
60318;SDS011;46163;52.306;5.634;2023-01-23T17:03:33;5.18;;;3.10;;
60318;SDS011;46163;52.306;5.634;2023-01-23T17:06:01;8.88;;;3.53;;
60318;SDS011;46163;52.306;5.634;2023-01-23T17:08:28;5.53;;;3.05;;
60318;SDS011;46163;52.306;5.634;2023-01-23T17:10:54;4.70;;;2.75;;
60318;SDS011;46163;52.306;5.634;2023-01-23T17:13:23;4.10;;;2.70;;
60318;SDS011;46163;52.306;5.634;2023-01-23T17:15:50;3.10;;;2.72;;